Time;durP1;ratioP1;P1;durP2;ratioP2;P2;SDS_P1;SDS_P2;PMS_P1;PMS_P2;Temp;Humidity;BMP_temperature;BMP_pressure;BME280_temperature;BME280_humidity;BME280_pressure;Samples;Min_cycle;Max_cycle;Signal;HPM_P1;HPM_P2
2023/03/09 00:02:13;;;;;;;1.00;0.80;;;20.20;66.70;;;;;;5045129;28;20645;-49
2023/03/09 00:04:40;;;;;;;1.13;0.80;;;20.20;66.60;;;;;;5041824;28;20273;-51
2023/03/09 00:07:07;;;;;;;1.00;0.70;;;20.20;66.60;;;;;;5038115;28;20207;-50
2023/03/09 00:09:35;;;;;;;1.00;0.80;;;20.10;66.50;;;;;;5040468;28;20208;-48
2023/03/09 00:12:02;;;;;;;0.90;0.60;;;20.10;66.50;;;;;;5046461;28;20540;-55
2023/03/09 00:14:28;;;;;;;1.00;0.80;;;20.10;66.50;;;;;;5043558;28;20189;-52
2023/03/09 00:16:55;;;;;;;1.10;0.95;;;20.10;66.50;;;;;;5046952;28;20191;-52
2023/03/09 00:19:26;;;;;;;0.98;0.80;;;20.10;66.50;;;;;;5044521;28;20207;-57
2023/03/09 00:21:54;;;;;;;1.20;0.88;;;20.10;66.50;;;;;;5043783;28;20220;-55
2023/03/09 00:24:26;;;;;;;1.20;0.90;;;20.10;66.50;;;;;;5043153;28;20205;-51
2023/03/09 00:26:56;;;;;;;1.13;0.75;;;20.10;66.50;;;;;;5041731;28;20267;-50
2023/03/09 00:29:24;;;;;;;0.90;0.70;;;20.10;66.50;;;;;;5038503;28;20195;-51
2023/03/09 00:31:50;;;;;;;1.08;0.80;;;20.10;66.60;;;;;;5042380;28;20214;-49
2023/03/09 00:34:18;;;;;;;1.10;0.80;;;20.10;66.50;;;;;;5039017;28;20195;-48
2023/03/09 00:36:45;;;;;;;1.02;0.80;;;20.10;66.50;;;;;;5041766;28;20208;-52
2023/03/09 00:39:14;;;;;;;1.60;0.98;;;20.10;66.60;;;;;;5039335;28;20191;-58
2023/03/09 00:41:41;;;;;;;1.20;1.05;;;20.10;66.60;;;;;;5042784;28;20198;-48
2023/03/09 00:44:11;;;;;;;1.10;0.85;;;20.10;66.50;;;;;;5045105;28;20207;-55
2023/03/09 00:46:38;;;;;;;0.85;0.70;;;20.10;66.60;;;;;;5047099;28;20191;-53
2023/03/09 00:49:06;;;;;;;1.42;0.77;;;20.10;66.60;;;;;;5037772;28;20195;-51
2023/03/09 00:51:33;;;;;;;1.15;0.90;;;20.10;66.60;;;;;;5043269;28;20238;-53
2023/03/09 00:53:59;;;;;;;1.10;0.77;;;20.10;66.60;;;;;;5043762;28;20227;-55
2023/03/09 00:56:29;;;;;;;0.90;0.73;;;20.10;66.50;;;;;;5046355;28;20196;-56
2023/03/09 00:58:57;;;;;;;1.00;0.90;;;20.10;66.60;;;;;;5045652;28;20571;-53
2023/03/09 01:01:25;;;;;;;0.90;0.70;;;20.10;66.60;;;;;;5046495;28;20206;-54
2023/03/09 01:03:52;;;;;;;0.90;0.73;;;20.10;66.60;;;;;;5044827;28;20283;-53
2023/03/09 01:06:20;;;;;;;0.90;0.80;;;20.10;66.60;;;;;;5043599;28;20196;-53
2023/03/09 01:08:47;;;;;;;1.20;0.90;;;20.10;66.60;;;;;;5042151;28;20203;-57
2023/03/09 01:11:15;;;;;;;0.90;0.70;;;20.10;66.60;;;;;;5041355;28;20591;-50
2023/03/09 01:13:42;;;;;;;1.10;0.85;;;20.10;67.40;;;;;;5049488;28;20191;-52
2023/03/09 01:16:09;;;;;;;1.02;0.85;;;20.10;66.60;;;;;;5044801;28;20199;-50
2023/03/09 01:18:37;;;;;;;1.45;0.90;;;20.10;66.60;;;;;;5048415;28;21808;-51
2023/03/09 01:21:04;;;;;;;1.35;0.73;;;20.10;66.60;;;;;;5044072;28;20203;-55
2023/03/09 01:23:31;;;;;;;1.27;0.88;;;20.10;66.60;;;;;;5045187;28;20199;-55
2023/03/09 01:25:58;;;;;;;1.00;0.90;;;20.10;66.60;;;;;;5036976;28;20215;-57
2023/03/09 01:28:25;;;;;;;0.90;0.80;;;20.10;66.60;;;;;;5046730;28;20200;-53
2023/03/09 01:30:52;;;;;;;0.90;0.80;;;20.10;66.60;;;;;;5040553;28;20215;-53
2023/03/09 01:33:18;;;;;;;0.90;0.77;;;20.10;66.60;;;;;;5050276;28;20199;-52
2023/03/09 01:35:46;;;;;;;1.85;0.80;;;20.10;66.60;;;;;;5037833;28;20753;-52
2023/03/09 01:38:13;;;;;;;0.95;0.80;;;20.10;66.60;;;;;;5041036;28;20203;-53
2023/03/09 01:40:44;;;;;;;1.30;0.80;;;20.10;66.60;;;;;;5041077;28;20203;-51
2023/03/09 01:43:29;;;;;;;1.00;0.70;;;20.10;66.60;;;;;;5038579;28;20230;-62
2023/03/09 01:46:41;;;;;;;0.90;0.70;;;20.10;66.60;;;;;;5042375;28;20208;-49
2023/03/09 01:49:17;;;;;;;0.93;0.80;;;20.10;66.60;;;;;;5017218;28;20647;-49
2023/03/09 01:51:51;;;;;;;0.90;0.70;;;20.10;66.60;;;;;;5044165;28;20230;-57
2023/03/09 01:54:23;;;;;;;1.00;0.80;;;20.10;66.60;;;;;;5044108;28;20198;-48
2023/03/09 01:56:54;;;;;;;1.00;0.90;;;20.10;66.60;;;;;;5039125;28;20196;-57
2023/03/09 01:59:23;;;;;;;1.25;0.77;;;20.10;66.60;;;;;;5048317;28;20563;-52
2023/03/09 02:01:51;;;;;;;1.00;0.80;;;20.10;66.60;;;;;;5047845;28;20283;-50
2023/03/09 02:04:24;;;;;;;0.90;0.70;;;20.10;66.60;;;;;;5041654;28;20193;-52
2023/03/09 02:06:53;;;;;;;0.90;0.80;;;20.10;66.60;;;;;;5046826;28;20204;-63
2023/03/09 02:09:26;;;;;;;1.00;0.80;;;20.10;66.60;;;;;;5045435;28;20195;-61
2023/03/09 02:11:53;;;;;;;0.95;0.80;;;20.10;66.60;;;;;;5050571;28;20314;-53
2023/03/09 02:14:20;;;;;;;0.90;0.70;;;20.10;66.60;;;;;;5039885;28;20191;-49
2023/03/09 02:16:47;;;;;;;1.10;0.80;;;20.10;66.60;;;;;;5048907;28;20211;-53
2023/03/09 02:19:23;;;;;;;1.27;0.90;;;20.10;67.40;;;;;;5048340;28;20196;-54
2023/03/09 02:21:54;;;;;;;1.00;0.77;;;20.10;66.60;;;;;;5041751;28;20689;-56
2023/03/09 02:24:27;;;;;;;1.20;0.90;;;20.10;66.60;;;;;;5048274;28;20198;-48
2023/03/09 02:26:57;;;;;;;0.80;0.70;;;20.10;66.60;;;;;;5041415;28;20262;-55
2023/03/09 02:29:26;;;;;;;1.10;1.00;;;20.10;66.60;;;;;;5048307;28;20191;-49
2023/03/09 02:31:53;;;;;;;0.90;0.70;;;20.10;67.30;;;;;;5040867;28;20231;-53
2023/03/09 02:34:20;;;;;;;0.90;0.75;;;20.10;66.60;;;;;;5041572;28;20286;-50
2023/03/09 02:36:47;;;;;;;1.00;0.90;;;20.00;66.50;;;;;;5044117;28;20200;-49
2023/03/09 02:39:19;;;;;;;1.55;0.90;;;20.10;66.60;;;;;;5042079;28;20562;-59
2023/03/09 02:41:46;;;;;;;1.08;0.80;;;20.10;66.60;;;;;;5041141;28;20215;-53
2023/03/09 02:44:13;;;;;;;0.90;0.80;;;20.10;66.60;;;;;;5047701;28;20206;-63
2023/03/09 02:46:41;;;;;;;1.00;0.70;;;20.00;66.50;;;;;;5045519;28;20200;-53
2023/03/09 02:49:08;;;;;;;0.80;0.70;;;20.00;66.50;;;;;;5047727;28;20196;-53
2023/03/09 02:51:35;;;;;;;0.88;0.60;;;20.10;66.60;;;;;;5043791;28;20223;-50
2023/03/09 02:54:01;;;;;;;0.90;0.60;;;20.00;66.50;;;;;;5039640;28;20195;-52
2023/03/09 02:56:28;;;;;;;1.20;0.75;;;20.00;66.50;;;;;;5047524;28;20196;-59
2023/03/09 02:58:55;;;;;;;1.15;0.93;;;20.00;66.50;;;;;;5042109;28;20686;-52
2023/03/09 03:01:21;;;;;;;0.90;0.70;;;20.00;66.50;;;;;;5044796;28;20222;-61
2023/03/09 03:03:49;;;;;;;0.80;0.70;;;20.00;66.50;;;;;;5043628;28;20203;-48
2023/03/09 03:06:16;;;;;;;1.10;0.80;;;20.00;66.40;;;;;;5042563;28;20203;-49
2023/03/09 03:08:43;;;;;;;0.90;0.80;;;20.00;66.50;;;;;;5043021;28;20667;-49
2023/03/09 03:11:09;;;;;;;1.00;0.90;;;20.00;66.50;;;;;;5048693;28;20216;-58
2023/03/09 03:13:36;;;;;;;2.28;0.85;;;20.00;66.40;;;;;;5045134;28;20216;-54
2023/03/09 03:16:04;;;;;;;1.13;1.02;;;20.00;67.20;;;;;;5049104;28;20207;-50
2023/03/09 03:18:31;;;;;;;1.00;0.82;;;20.00;66.50;;;;;;5043303;28;20206;-50
2023/03/09 03:20:59;;;;;;;0.98;0.70;;;20.00;66.40;;;;;;5045783;28;20693;-55
2023/03/09 03:23:26;;;;;;;0.98;0.70;;;20.00;66.50;;;;;;5041261;28;20583;-54
2023/03/09 03:25:53;;;;;;;1.00;0.90;;;20.00;66.40;;;;;;5045758;28;20192;-49
2023/03/09 03:28:20;;;;;;;0.90;0.70;;;20.00;66.50;;;;;;5048019;28;20200;-53
2023/03/09 03:30:51;;;;;;;1.00;0.80;;;20.00;66.40;;;;;;5044532;28;20532;-59
2023/03/09 03:33:17;;;;;;;1.27;0.90;;;20.00;66.50;;;;;;5043834;28;20234;-55
2023/03/09 03:35:44;;;;;;;1.30;0.80;;;20.00;66.50;;;;;;5043530;28;20191;-50
2023/03/09 03:38:12;;;;;;;1.45;0.70;;;20.00;66.40;;;;;;5038512;28;20199;-48
2023/03/09 03:40:42;;;;;;;0.90;0.70;;;20.00;66.50;;;;;;5042114;28;20206;-52
2023/03/09 03:43:09;;;;;;;0.80;0.60;;;20.00;66.50;;;;;;5046180;28;20223;-55
2023/03/09 03:45:36;;;;;;;0.90;0.80;;;20.00;66.50;;;;;;5041961;28;20846;-53
2023/03/09 03:48:02;;;;;;;1.00;0.90;;;20.00;66.40;;;;;;5043162;28;20196;-54
2023/03/09 03:50:29;;;;;;;1.38;0.70;;;20.00;67.20;;;;;;5044781;28;20196;-50
2023/03/09 03:52:56;;;;;;;0.98;0.70;;;20.00;66.40;;;;;;5047206;28;20255;-58
2023/03/09 03:55:24;;;;;;;0.98;0.70;;;20.00;66.40;;;;;;5044221;28;20200;-55
2023/03/09 03:57:51;;;;;;;1.10;0.90;;;20.00;66.40;;;;;;5043328;28;20222;-54
2023/03/09 04:00:19;;;;;;;1.00;0.85;;;20.00;66.40;;;;;;5038630;28;20203;-53
2023/03/09 04:02:46;;;;;;;1.27;0.70;;;20.00;66.40;;;;;;5045256;28;20211;-52
2023/03/09 04:05:13;;;;;;;0.90;0.70;;;20.00;66.40;;;;;;5048272;28;20584;-56
2023/03/09 04:07:40;;;;;;;0.88;0.63;;;20.00;66.40;;;;;;5042078;28;20497;-56
2023/03/09 04:10:08;;;;;;;0.90;0.70;;;20.00;66.40;;;;;;5045552;28;20196;-62
2023/03/09 04:12:36;;;;;;;0.90;0.70;;;20.00;66.40;;;;;;5049104;28;20302;-54
2023/03/09 04:15:03;;;;;;;0.90;0.60;;;20.00;66.40;;;;;;5048056;28;20563;-56
2023/03/09 04:17:30;;;;;;;0.90;0.70;;;20.00;66.40;;;;;;5041179;28;20584;-61
2023/03/09 04:19:57;;;;;;;0.80;0.63;;;20.00;66.40;;;;;;5041151;28;20206;-52
2023/03/09 04:22:24;;;;;;;0.90;0.70;;;20.00;66.40;;;;;;5043560;28;20215;-49
2023/03/09 04:24:51;;;;;;;0.90;0.80;;;20.00;66.40;;;;;;5042462;28;20196;-60
2023/03/09 04:27:18;;;;;;;1.42;0.80;;;20.00;66.40;;;;;;5043535;28;20195;-50
2023/03/09 04:29:46;;;;;;;1.23;0.77;;;20.00;66.40;;;;;;5035774;28;20192;-61
2023/03/09 04:32:13;;;;;;;0.90;0.75;;;20.00;67.20;;;;;;5042286;28;20563;-49
2023/03/09 04:34:39;;;;;;;0.90;0.75;;;20.00;66.40;;;;;;5043428;28;20192;-61
2023/03/09 04:37:06;;;;;;;1.17;0.80;;;20.00;66.40;;;;;;5039347;28;20671;-53
2023/03/09 04:39:33;;;;;;;0.90;0.80;;;20.00;66.40;;;;;;5040197;28;20659;-55
2023/03/09 04:42:00;;;;;;;0.90;0.77;;;20.00;66.40;;;;;;5036529;28;20200;-50
2023/03/09 04:44:27;;;;;;;1.00;0.70;;;20.00;66.40;;;;;;5046837;28;20207;-53
2023/03/09 04:46:55;;;;;;;1.10;0.70;;;20.00;66.30;;;;;;5042582;28;20560;-57
2023/03/09 04:49:21;;;;;;;3.28;2.22;;;20.00;66.40;;;;;;5040560;28;20199;-52
2023/03/09 04:51:48;;;;;;;0.90;0.70;;;20.00;66.30;;;;;;5045060;28;20686;-49
2023/03/09 04:54:15;;;;;;;0.90;0.75;;;20.00;66.30;;;;;;5040966;28;20191;-49
2023/03/09 04:56:42;;;;;;;0.93;0.70;;;20.00;66.30;;;;;;5035187;28;20206;-51
2023/03/09 04:59:08;;;;;;;0.80;0.60;;;20.00;66.30;;;;;;5033904;28;20204;-54
2023/03/09 05:01:35;;;;;;;1.00;0.90;;;20.00;66.30;;;;;;5043939;28;20211;-56
2023/03/09 05:04:03;;;;;;;0.90;0.70;;;20.00;66.30;;;;;;5043562;28;20546;-50
2023/03/09 05:06:30;;;;;;;0.95;0.80;;;20.00;66.30;;;;;;5045327;28;20195;-52
2023/03/09 05:08:59;;;;;;;0.90;0.80;;;20.00;66.30;;;;;;5039251;28;20210;-55
2023/03/09 05:11:26;;;;;;;0.80;0.60;;;20.00;66.30;;;;;;5043007;28;20249;-49
2023/03/09 05:13:52;;;;;;;0.90;0.70;;;20.00;66.30;;;;;;5047710;28;20191;-52
2023/03/09 05:16:19;;;;;;;0.95;0.85;;;20.00;66.30;;;;;;5047737;28;20192;-53
2023/03/09 05:18:49;;;;;;;1.00;0.88;;;20.00;66.30;;;;;;5046985;28;20196;-53
2023/03/09 05:21:17;;;;;;;0.90;0.70;;;20.00;66.30;;;;;;5044325;28;20215;-54
2023/03/09 05:23:45;;;;;;;0.90;0.70;;;20.00;66.30;;;;;;5048391;28;20203;-49
2023/03/09 05:26:11;;;;;;;0.90;0.80;;;20.00;66.20;;;;;;5047807;28;20191;-50
2023/03/09 05:28:40;;;;;;;0.77;0.60;;;20.00;66.30;;;;;;5049071;28;20556;-52
2023/03/09 05:31:08;;;;;;;1.00;0.80;;;20.00;66.30;;;;;;5049975;28;20218;-56
2023/03/09 05:33:35;;;;;;;0.90;0.70;;;20.00;66.30;;;;;;5049853;28;20200;-49
2023/03/09 05:36:02;;;;;;;1.00;0.85;;;20.00;66.20;;;;;;5050709;28;20195;-49
2023/03/09 05:38:30;;;;;;;0.95;0.80;;;20.00;66.20;;;;;;5046866;28;20195;-54
2023/03/09 05:40:57;;;;;;;1.00;0.80;;;20.00;66.20;;;;;;5041698;28;20204;-54
2023/03/09 05:43:24;;;;;;;0.80;0.70;;;20.00;66.20;;;;;;5047701;28;20199;-58
2023/03/09 05:45:57;;;;;;;0.88;0.63;;;20.00;66.30;;;;;;5047960;28;20203;-52
2023/03/09 05:48:24;;;;;;;0.90;0.70;;;20.00;66.20;;;;;;5045714;28;20211;-52
2023/03/09 05:50:50;;;;;;;0.98;0.70;;;20.00;66.20;;;;;;5045179;28;20739;-51
2023/03/09 05:53:17;;;;;;;0.90;0.70;;;20.00;66.20;;;;;;5043562;28;20223;-58
2023/03/09 05:55:45;;;;;;;1.20;0.88;;;20.00;66.20;;;;;;5047511;28;20196;-54
2023/03/09 05:58:12;;;;;;;1.15;0.90;;;20.00;66.20;;;;;;5047120;28;20207;-50
2023/03/09 06:00:38;;;;;;;0.90;0.70;;;20.00;67.00;;;;;;5044207;28;20203;-52
2023/03/09 06:03:05;;;;;;;1.10;1.00;;;20.00;66.20;;;;;;5042203;28;20597;-59
2023/03/09 06:05:32;;;;;;;0.90;0.70;;;20.00;66.20;;;;;;5048844;28;20434;-50
2023/03/09 06:07:58;;;;;;;0.90;0.70;;;20.00;66.20;;;;;;5050154;28;20204;-54
2023/03/09 06:10:25;;;;;;;0.95;0.80;;;20.00;66.20;;;;;;5047365;28;20204;-53
2023/03/09 06:12:53;;;;;;;1.10;0.80;;;20.00;66.20;;;;;;5043832;28;20222;-49
2023/03/09 06:15:20;;;;;;;0.80;0.60;;;20.00;66.20;;;;;;5052631;28;20199;-54
2023/03/09 06:17:47;;;;;;;1.33;0.70;;;20.00;66.20;;;;;;5049119;28;20223;-60
2023/03/09 06:20:14;;;;;;;0.90;0.70;;;20.00;66.20;;;;;;5045732;28;20199;-56
2023/03/09 06:22:43;;;;;;;0.90;0.70;;;20.00;66.20;;;;;;5040517;28;20220;-52
2023/03/09 06:25:10;;;;;;;0.95;0.80;;;20.00;66.20;;;;;;5046202;28;20712;-54
2023/03/09 06:27:36;;;;;;;0.95;0.73;;;20.00;66.20;;;;;;5044333;28;20328;-53
2023/03/09 06:30:06;;;;;;;1.10;0.82;;;20.00;67.00;;;;;;5040961;28;20203;-53
2023/03/09 06:32:32;;;;;;;0.90;0.70;;;20.00;66.20;;;;;;5047992;28;20221;-51
2023/03/09 06:34:59;;;;;;;1.33;0.80;;;19.90;66.10;;;;;;5045207;28;20946;-53
2023/03/09 06:37:26;;;;;;;0.90;0.70;;;20.00;66.20;;;;;;5044444;28;20200;-54
2023/03/09 06:39:53;;;;;;;1.00;0.70;;;19.90;66.00;;;;;;5045692;28;20591;-52
2023/03/09 06:42:19;;;;;;;0.98;0.80;;;19.90;66.00;;;;;;5043266;28;20200;-50
2023/03/09 06:44:46;;;;;;;0.88;0.68;;;19.90;66.00;;;;;;5046714;28;20196;-55
2023/03/09 06:47:14;;;;;;;1.02;0.77;;;19.90;66.00;;;;;;5046646;28;20195;-52
2023/03/09 06:49:42;;;;;;;0.80;0.68;;;19.90;66.00;;;;;;5043379;28;20206;-51
2023/03/09 06:52:09;;;;;;;1.00;0.80;;;19.90;66.00;;;;;;5048313;28;20306;-52
2023/03/09 06:54:36;;;;;;;1.00;0.75;;;19.90;66.00;;;;;;5043074;28;21431;-59
2023/03/09 06:57:03;;;;;;;0.85;0.70;;;19.90;66.00;;;;;;5040606;28;20203;-56
2023/03/09 06:59:30;;;;;;;0.93;0.70;;;19.90;66.00;;;;;;5042673;28;20196;-49
2023/03/09 07:01:56;;;;;;;1.00;0.90;;;19.90;66.00;;;;;;5042354;28;20199;-52
2023/03/09 07:04:24;;;;;;;0.95;0.82;;;19.90;66.00;;;;;;5046428;28;20643;-55
2023/03/09 07:06:51;;;;;;;0.80;0.60;;;19.90;66.00;;;;;;5047696;28;20200;-57
2023/03/09 07:09:18;;;;;;;1.10;0.90;;;19.90;66.00;;;;;;5047616;28;20306;-55
2023/03/09 07:11:46;;;;;;;0.90;0.80;;;19.90;66.00;;;;;;5044817;28;20191;-54
2023/03/09 07:14:13;;;;;;;1.10;0.93;;;20.00;66.10;;;;;;5050799;28;20270;-48
2023/03/09 07:16:39;;;;;;;2.75;0.90;;;19.90;65.90;;;;;;5048183;28;20203;-63
2023/03/09 07:19:06;;;;;;;1.00;0.80;;;19.90;65.90;;;;;;5048930;28;20188;-51
2023/03/09 07:21:34;;;;;;;0.90;0.70;;;19.90;65.90;;;;;;5044123;28;20214;-52
2023/03/09 07:24:01;;;;;;;2.05;0.70;;;20.00;66.00;;;;;;5046729;28;20571;-48
2023/03/09 07:26:27;;;;;;;2.70;0.70;;;20.00;66.00;;;;;;5047720;28;20188;-49
2023/03/09 07:28:54;;;;;;;1.20;0.80;;;20.00;65.90;;;;;;5048033;28;20206;-52
2023/03/09 07:31:21;;;;;;;0.98;0.80;;;20.00;65.90;;;;;;5048234;28;20200;-60
2023/03/09 07:33:49;;;;;;;1.17;0.90;;;20.00;66.00;;;;;;5046295;28;20314;-62
2023/03/09 07:36:16;;;;;;;2.88;0.93;;;20.00;66.00;;;;;;5044464;28;20675;-53
2023/03/09 07:38:44;;;;;;;1.05;0.80;;;20.00;66.10;;;;;;5044341;28;20196;-51
2023/03/09 07:41:11;;;;;;;1.10;0.90;;;20.00;66.10;;;;;;5044872;28;20283;-48
2023/03/09 07:43:43;;;;;;;0.90;0.70;;;20.00;66.10;;;;;;5043208;28;20203;-48
2023/03/09 07:46:10;;;;;;;0.90;0.70;;;20.00;66.10;;;;;;5035684;28;20908;-47
2023/03/09 07:48:38;;;;;;;6.57;0.80;;;20.00;66.10;;;;;;5039440;28;20228;-51
2023/03/09 07:51:05;;;;;;;2.70;0.80;;;20.00;66.10;;;;;;5042188;28;20941;-52
2023/03/09 07:53:33;;;;;;;1.90;0.60;;;20.00;66.10;;;;;;5041877;28;20234;-49
2023/03/09 07:56:03;;;;;;;2.22;1.08;;;20.00;66.10;;;;;;5044110;28;20245;-50
2023/03/09 07:58:30;;;;;;;5.53;0.77;;;20.00;66.20;;;;;;5041191;28;20192;-48
2023/03/09 08:00:57;;;;;;;0.90;0.70;;;20.00;66.30;;;;;;5045178;28;20207;-50
2023/03/09 08:03:24;;;;;;;1.10;0.80;;;20.00;66.40;;;;;;5048810;28;20572;-52
2023/03/09 08:05:54;;;;;;;1.00;0.80;;;20.00;66.40;;;;;;5048648;28;20202;-52
2023/03/09 08:08:22;;;;;;;13.25;1.00;;;20.00;66.50;;;;;;5047368;28;20284;-50
2023/03/09 08:10:49;;;;;;;1.00;0.80;;;20.00;66.60;;;;;;5046320;28;20229;-55
2023/03/09 08:13:17;;;;;;;1.13;0.85;;;20.00;66.70;;;;;;5049910;28;20238;-57
2023/03/09 08:15:45;;;;;;;2.03;0.93;;;20.00;66.70;;;;;;5055348;28;20199;-50
2023/03/09 08:18:12;;;;;;;1.13;0.80;;;20.00;66.80;;;;;;5050157;28;20214;-47
2023/03/09 08:20:39;;;;;;;1.00;0.80;;;20.00;66.80;;;;;;5050030;28;20245;-51
2023/03/09 08:23:06;;;;;;;0.95;0.70;;;20.00;66.80;;;;;;5041619;28;20219;-49
2023/03/09 08:25:33;;;;;;;1.00;0.85;;;20.00;66.90;;;;;;5038696;28;20195;-51
2023/03/09 08:28:00;;;;;;;2.08;1.90;;;20.00;66.90;;;;;;5044934;28;20207;-49
2023/03/09 08:30:28;;;;;;;1.70;1.60;;;20.00;66.70;;;;;;5046578;28;20204;-54
2023/03/09 08:32:56;;;;;;;1.55;1.45;;;20.00;66.70;;;;;;5040281;28;20561;-53
2023/03/09 08:35:25;;;;;;;1.30;1.20;;;20.00;66.80;;;;;;5032274;28;20191;-57
2023/03/09 08:37:52;;;;;;;1.83;0.95;;;20.00;66.70;;;;;;5047306;28;20192;-51
2023/03/09 08:40:18;;;;;;;1.42;1.05;;;20.00;66.80;;;;;;5049014;28;20568;-55
2023/03/09 08:42:45;;;;;;;1.10;1.00;;;20.00;66.70;;;;;;5046500;28;20199;-53
2023/03/09 08:45:13;;;;;;;1.02;0.90;;;20.00;66.70;;;;;;5043944;28;20219;-49
2023/03/09 08:47:41;;;;;;;1.10;0.90;;;20.00;66.70;;;;;;5043794;28;20195;-51
2023/03/09 08:50:09;;;;;;;1.85;1.00;;;20.00;66.60;;;;;;5041379;28;20195;-52
2023/03/09 08:52:37;;;;;;;1.00;0.85;;;20.00;66.60;;;;;;5046475;28;20560;-49
2023/03/09 08:55:06;;;;;;;1.10;0.90;;;20.00;66.60;;;;;;5050100;28;20200;-49
2023/03/09 08:57:32;;;;;;;1.00;0.77;;;20.00;66.60;;;;;;5048051;28;20200;-51
2023/03/09 09:00:00;;;;;;;1.05;0.85;;;20.00;66.60;;;;;;5051663;28;20199;-54
2023/03/09 09:02:27;;;;;;;1.13;1.02;;;20.00;66.60;;;;;;5046614;28;20202;-48
2023/03/09 09:04:55;;;;;;;1.30;1.20;;;20.00;66.60;;;;;;5049504;28;20188;-53
2023/03/09 09:07:21;;;;;;;0.95;0.85;;;20.00;66.60;;;;;;5045839;28;20663;-56
2023/03/09 09:09:48;;;;;;;0.98;0.80;;;20.10;66.70;;;;;;5048329;28;20195;-53
2023/03/09 09:12:15;;;;;;;0.93;0.82;;;20.10;66.60;;;;;;5048815;28;20611;-55
2023/03/09 09:14:42;;;;;;;0.90;0.70;;;20.10;66.70;;;;;;5046192;28;20265;-53
2023/03/09 09:17:11;;;;;;;1.40;1.27;;;20.10;66.70;;;;;;5048221;28;20686;-55
2023/03/09 09:19:39;;;;;;;1.20;0.90;;;20.10;66.70;;;;;;5050797;28;20366;-50
2023/03/09 09:22:08;;;;;;;1.00;0.80;;;20.10;66.70;;;;;;5044622;28;20706;-50
2023/03/09 09:24:37;;;;;;;1.27;1.10;;;20.10;66.70;;;;;;5047324;28;20299;-53
2023/03/09 09:27:04;;;;;;;1.20;0.80;;;20.10;66.70;;;;;;5050518;28;20249;-55
2023/03/09 09:29:31;;;;;;;1.00;0.90;;;20.10;66.70;;;;;;5047401;28;20281;-50
2023/03/09 09:31:58;;;;;;;1.02;0.90;;;20.10;66.80;;;;;;5050228;28;20199;-52
2023/03/09 09:34:24;;;;;;;3.70;0.85;;;20.10;66.80;;;;;;5050864;28;20243;-52
2023/03/09 09:36:51;;;;;;;1.25;1.00;;;20.10;66.80;;;;;;5051743;28;20211;-50
2023/03/09 09:39:19;;;;;;;1.00;0.80;;;20.10;66.80;;;;;;5046552;28;20196;-54
2023/03/09 09:41:48;;;;;;;1.30;1.20;;;20.10;66.80;;;;;;5040235;28;20196;-51
2023/03/09 09:44:18;;;;;;;1.40;1.00;;;20.10;66.80;;;;;;5052279;28;20235;-50
2023/03/09 09:46:46;;;;;;;1.92;1.02;;;20.00;66.70;;;;;;5051215;28;20600;-48
2023/03/09 09:49:20;;;;;;;5.32;1.00;;;20.00;66.70;;;;;;5044873;28;20191;-49
2023/03/09 09:52:00;;;;;;;8.38;7.57;;;20.00;66.80;;;;;;5047637;28;20223;-56
2023/03/09 09:54:37;;;;;;;3.47;3.28;;;19.90;65.50;;;;;;5043510;28;20693;-58
2023/03/09 09:57:09;;;;;;;2.60;2.30;;;19.80;65.10;;;;;;5051507;28;20211;-59
2023/03/09 09:59:42;;;;;;;2.13;1.85;;;19.80;65.50;;;;;;5049528;28;20199;-60
2023/03/09 10:02:23;;;;;;;2.28;2.00;;;19.90;65.80;;;;;;5047908;28;20206;-59
2023/03/09 10:04:56;;;;;;;1.60;1.50;;;20.00;66.10;;;;;;5046531;28;20561;-60
2023/03/09 10:07:25;;;;;;;3.00;1.35;;;20.00;66.10;;;;;;5050326;28;20199;-52
2023/03/09 10:09:58;;;;;;;2.10;1.67;;;20.10;66.40;;;;;;5046845;28;20566;-69
2023/03/09 10:12:25;;;;;;;1.40;1.10;;;20.10;66.40;;;;;;5039884;28;20603;-57
2023/03/09 10:14:55;;;;;;;4.75;1.30;;;20.20;66.50;;;;;;5045538;28;20219;-63
2023/03/09 10:17:29;;;;;;;1.95;1.55;;;20.20;66.60;;;;;;5056050;28;20195;-59
2023/03/09 10:19:59;;;;;;;2.55;1.25;;;20.30;66.80;;;;;;5051252;28;20211;-60
2023/03/09 10:22:27;;;;;;;1.30;1.10;;;20.30;66.80;;;;;;5041137;28;20406;-59
2023/03/09 10:24:56;;;;;;;3.80;1.75;;;20.30;66.90;;;;;;5038174;28;20481;-65
2023/03/09 10:27:32;;;;;;;1.20;1.10;;;20.30;67.00;;;;;;5048132;28;20278;-58
2023/03/09 10:30:04;;;;;;;1.50;1.33;;;20.40;67.10;;;;;;5050962;28;20453;-58
2023/03/09 10:32:42;;;;;;;1.50;1.27;;;20.40;67.10;;;;;;5047620;28;20655;-60
2023/03/09 10:35:22;;;;;;;1.50;1.17;;;20.40;67.20;;;;;;5050865;28;20390;-52
2023/03/09 10:37:51;;;;;;;1.33;1.20;;;20.40;67.30;;;;;;5051585;28;20438;-60
2023/03/09 10:40:21;;;;;;;1.73;1.27;;;20.50;67.40;;;;;;5051444;28;20604;-63
2023/03/09 10:42:48;;;;;;;1.60;1.40;;;20.50;67.40;;;;;;5048063;28;20583;-57
2023/03/09 10:45:25;;;;;;;1.80;1.70;;;20.50;67.50;;;;;;5050799;28;20446;-64
2023/03/09 10:47:54;;;;;;;2.03;1.20;;;20.50;67.50;;;;;;5049434;28;20446;-60
2023/03/09 10:50:22;;;;;;;0.97;0.87;;;20.50;67.50;;;;;;5048403;28;20462;-59
2023/03/09 10:52:49;;;;;;;2.73;1.30;;;20.60;67.70;;;;;;5046966;28;20447;-54
2023/03/09 10:55:39;;;;;;;1.57;1.47;;;20.60;67.60;;;;;;5040091;28;20821;-65
2023/03/09 10:58:18;;;;;;;1.73;1.00;;;20.60;67.70;;;;;;5045122;28;20687;-67
2023/03/09 11:00:55;;;;;;;1.30;1.20;;;20.60;67.70;;;;;;5054942;28;20441;-59
2023/03/09 11:03:23;;;;;;;1.30;1.10;;;20.60;67.70;;;;;;5048328;28;20481;-59
2023/03/09 11:05:50;;;;;;;1.50;1.40;;;20.60;67.70;;;;;;5050099;28;20454;-61
2023/03/09 11:08:24;;;;;;;1.27;1.17;;;20.70;67.90;;;;;;5047572;28;20515;-58
2023/03/09 11:11:04;;;;;;;1.60;1.17;;;20.70;67.90;;;;;;5048005;28;20457;-55
2023/03/09 11:13:32;;;;;;;1.30;1.20;;;20.70;67.90;;;;;;5047038;28;20469;-56
2023/03/09 11:16:07;;;;;;;2.00;1.10;;;20.70;67.90;;;;;;5045165;28;20458;-59
2023/03/09 11:18:34;;;;;;;1.20;1.10;;;20.70;67.90;;;;;;5043236;28;20450;-60
2023/03/09 11:21:00;;;;;;;1.60;1.40;;;20.70;67.90;;;;;;5046902;28;20450;-62
2023/03/09 11:23:33;;;;;;;1.47;1.10;;;20.70;67.90;;;;;;5049790;28;20477;-56
2023/03/09 11:26:08;;;;;;;1.10;1.00;;;20.70;67.90;;;;;;5043691;28;20461;-59
2023/03/09 11:28:44;;;;;;;1.30;1.00;;;20.80;67.90;;;;;;5041254;28;20453;-60
2023/03/09 11:31:14;;;;;;;1.37;1.20;;;20.80;67.90;;;;;;5043770;28;20438;-66
2023/03/09 11:33:41;;;;;;;1.10;1.00;;;20.80;67.90;;;;;;5044070;28;20482;-67
2023/03/09 11:36:15;;;;;;;2.33;1.10;;;20.80;67.90;;;;;;5053663;28;20437;-65
2023/03/09 11:38:44;;;;;;;1.40;1.30;;;20.80;67.90;;;;;;5049694;28;20500;-61
2023/03/09 11:41:19;;;;;;;3.57;1.20;;;20.80;67.90;;;;;;5045183;28;20469;-61
2023/03/09 11:43:52;;;;;;;1.13;1.03;;;20.80;68.00;;;;;;5049811;28;20464;-57
2023/03/09 11:46:21;;;;;;;1.70;1.10;;;20.90;68.10;;;;;;5050337;28;20446;-56
2023/03/09 11:48:51;;;;;;;1.30;1.20;;;20.90;68.20;;;;;;5048851;28;20872;-55
2023/03/09 11:51:24;;;;;;;1.20;1.10;;;20.90;68.20;;;;;;5046613;28;20446;-57
2023/03/09 11:53:56;;;;;;;1.30;1.20;;;20.90;68.20;;;;;;5040456;28;20822;-61
2023/03/09 11:56:29;;;;;;;1.20;1.10;;;20.90;68.50;;;;;;5042884;28;20481;-64
2023/03/09 11:59:01;;;;;;;1.30;1.20;;;20.90;68.50;;;;;;5045905;28;20462;-59
2023/03/09 12:01:33;;;;;;;1.20;1.10;;;20.90;68.60;;;;;;5045907;28;20453;-60
2023/03/09 12:04:02;;;;;;;1.20;1.10;;;20.90;68.60;;;;;;5045999;28;20469;-60
2023/03/09 12:06:46;;;;;;;1.30;1.17;;;20.90;68.50;;;;;;5047487;28;20458;-56
2023/03/09 12:09:24;;;;;;;1.60;1.50;;;20.90;68.60;;;;;;5038361;28;20458;-66
2023/03/09 12:11:57;;;;;;;1.27;1.10;;;20.90;68.90;;;;;;5038890;28;20484;-61
2023/03/09 12:14:28;;;;;;;1.77;1.20;;;20.90;68.60;;;;;;5040735;28;20478;-59
2023/03/09 12:16:59;;;;;;;2.33;1.13;;;20.90;68.70;;;;;;5037940;28;20466;-60
2023/03/09 12:19:29;;;;;;;1.23;1.13;;;20.90;68.50;;;;;;5039336;28;20537;-56
2023/03/09 12:22:03;;;;;;;3.13;1.43;;;20.90;68.40;;;;;;5041361;28;20470;-62
2023/03/09 12:24:39;;;;;;;1.50;1.20;;;20.90;68.40;;;;;;5047091;28;20586;-64
2023/03/09 12:27:18;;;;;;;1.20;1.10;;;21.00;68.40;;;;;;5040581;28;20453;-68
2023/03/09 12:29:47;;;;;;;1.30;1.07;;;21.00;68.40;;;;;;5040004;28;20454;-67
2023/03/09 12:32:40;;;;;;;1.37;1.20;;;21.00;68.40;;;;;;5046347;28;20453;-58
2023/03/09 12:35:14;;;;;;;1.87;1.30;;;21.00;68.40;;;;;;5039722;28;20470;-64
2023/03/09 12:38:16;;;;;;;1.23;1.00;;;21.00;68.40;;;;;;5041858;28;20457;-62
2023/03/09 12:40:43;;;;;;;1.60;1.00;;;21.00;68.30;;;;;;5042239;28;20527;-58
2023/03/09 12:43:34;;;;;;;1.50;1.20;;;21.00;68.30;;;;;;5042986;28;20474;-57
2023/03/09 12:46:34;;;;;;;1.30;1.20;;;21.10;68.40;;;;;;5047030;28;20466;-60
2023/03/09 12:49:02;;;;;;;1.47;1.30;;;21.00;68.30;;;;;;5043891;28;20462;-56
2023/03/09 12:51:34;;;;;;;1.40;1.20;;;21.10;69.20;;;;;;5042066;28;20725;-54
2023/03/09 12:54:06;;;;;;;1.37;1.23;;;21.10;68.40;;;;;;5045708;28;20477;-66
2023/03/09 12:56:34;;;;;;;1.03;0.93;;;21.10;68.40;;;;;;5040297;28;20469;-68
2023/03/09 12:59:09;;;;;;;1.37;1.00;;;21.10;68.50;;;;;;5043839;28;20516;-53